Hot Springs, Montana
Current Conditions -  °F | °C
As of 2:11 AM on Thursday 23 Oct 2014 (Local Time) from KMLP Reporting Station
Moderate Rain Moderate Rain  
Wind Chill: 30°   Ceiling: 800
Heat Index: 37°   Visibility: 1.5mi
Dew Point: 37°   Wind: 9mph
Humidity: 100%   Direction: 150°SSE
Pressure: 29.88"   Gusts: 33mph
Location:  47.61°N, 114.67°W
Report Text: KMLP 230811Z AUTO 15008G29KT 110V210 1 1/2SM RA BR SCT004 BKN008 OVC018 03/03 A2988 RMK AO2 PK WND 20029/0808 VIS 3/4V3 P0004 T00280028
Loading
Personal Weather Stations






























Interactive Weather Map New forecast layout! Learn more

10-Day Weather Forecast

Advertisements
Track Severe Weather on mobile